createdAt,value
2022-10-31T00:02:10.547Z,11.20
2022-10-31T00:04:56.321Z,11.10
2022-10-31T00:07:41.599Z,11.10
2022-10-31T00:10:27.101Z,11.20
2022-10-31T00:13:14.115Z,11.00
2022-10-31T00:16:01.818Z,11.20
2022-10-31T00:18:54.838Z,11.00
2022-10-31T00:21:40.882Z,11.10
2022-10-31T00:24:29.507Z,11.20
2022-10-31T00:27:15.006Z,11.20
2022-10-31T00:30:00.318Z,11.20
2022-10-31T00:32:46.275Z,11.20
2022-10-31T00:35:31.937Z,11.10
2022-10-31T00:38:19.782Z,11.00
2022-10-31T00:41:05.349Z,11.10
2022-10-31T00:43:50.629Z,11.20
2022-10-31T00:46:36.154Z,11.00
2022-10-31T00:49:21.840Z,11.30
2022-10-31T00:52:06.946Z,11.50
2022-10-31T00:54:54.658Z,11.40
2022-10-31T00:57:39.869Z,11.70
2022-10-31T01:00:29.963Z,11.60
2022-10-31T01:03:15.265Z,11.70
2022-10-31T01:06:03.785Z,11.50
2022-10-31T01:08:49.663Z,11.70
2022-10-31T01:11:35.908Z,11.60
2022-10-31T01:14:21.327Z,11.80
2022-10-31T01:17:06.715Z,11.70
2022-10-31T01:19:52.346Z,11.80
2022-10-31T01:22:40.522Z,12.10
2022-10-31T01:25:26.025Z,12.30
2022-10-31T01:28:11.243Z,12.10
2022-10-31T01:31:01.704Z,12.10
2022-10-31T01:33:52.206Z,12.30
2022-10-31T01:36:41.675Z,12.30
2022-10-31T01:39:27.015Z,12.30
2022-10-31T01:42:21.808Z,12.20
2022-10-31T01:45:11.026Z,12.30
2022-10-31T01:47:59.411Z,12.40
2022-10-31T01:50:47.941Z,12.30
2022-10-31T01:53:33.743Z,12.10
2022-10-31T01:56:19.465Z,12.00
2022-10-31T01:59:09.113Z,11.90
2022-10-31T02:01:55.315Z,11.80
2022-10-31T02:04:42.078Z,11.80
2022-10-31T02:07:40.664Z,11.80
2022-10-31T02:10:27.649Z,12.00
2022-10-31T02:13:14.021Z,12.00
2022-10-31T02:16:00.895Z,12.00
2022-10-31T02:18:46.817Z,11.80
2022-10-31T02:21:41.226Z,11.80
2022-10-31T02:24:48.561Z,11.70
2022-10-31T02:27:58.658Z,11.70
2022-10-31T02:30:49.994Z,11.40
2022-10-31T02:33:52.104Z,11.50
2022-10-31T02:36:50.159Z,11.40
2022-10-31T02:40:00.929Z,11.20
2022-10-31T02:43:04.204Z,11.20
2022-10-31T02:46:13.470Z,11.00
2022-10-31T02:49:06.836Z,11.10
2022-10-31T02:51:52.513Z,10.90
2022-10-31T02:54:38.300Z,10.90
2022-10-31T02:57:31.819Z,11.00
2022-10-31T03:00:17.124Z,10.80
2022-10-31T03:03:07.954Z,11.10
2022-10-31T03:06:02.807Z,11.10
2022-10-31T03:09:13.514Z,11.40
2022-10-31T03:12:10.351Z,11.60
2022-10-31T03:15:33.162Z,11.60
2022-10-31T03:18:50.611Z,11.80
2022-10-31T03:22:05.922Z,12.00
2022-10-31T03:24:53.181Z,12.20
2022-10-31T03:27:40.186Z,12.20
2022-10-31T03:30:26.122Z,12.30
2022-10-31T03:33:22.568Z,12.50
2022-10-31T03:36:14.006Z,12.60
2022-10-31T03:39:00.966Z,12.40
2022-10-31T03:41:57.528Z,12.60
2022-10-31T03:44:50.292Z,12.50
2022-10-31T03:47:37.841Z,12.60
2022-10-31T03:50:29.854Z,12.70
2022-10-31T03:53:31.582Z,12.50
2022-10-31T03:56:33.359Z,12.50
2022-10-31T03:59:34.349Z,12.70
2022-10-31T04:02:23.928Z,12.70
2022-10-31T04:05:13.979Z,12.60
2022-10-31T04:08:01.778Z,12.70
2022-10-31T04:10:52.226Z,12.70
2022-10-31T04:13:39.644Z,12.70
2022-10-31T04:16:26.455Z,12.80
2022-10-31T04:19:13.221Z,12.80
2022-10-31T04:21:58.531Z,12.80
2022-10-31T04:24:44.198Z,12.70
2022-10-31T04:27:29.780Z,12.70
2022-10-31T04:30:15.602Z,12.80
2022-10-31T04:33:03.793Z,12.70
2022-10-31T04:35:49.168Z,12.80
2022-10-31T04:38:34.951Z,12.60
2022-10-31T04:41:22.854Z,12.70
2022-10-31T04:44:12.731Z,12.60
2022-10-31T04:46:58.342Z,12.70
2022-10-31T04:49:51.222Z,12.80
2022-10-31T04:52:46.894Z,12.70
2022-10-31T04:55:32.421Z,12.80
2022-10-31T04:58:20.364Z,12.90
2022-10-31T05:01:06.735Z,12.70
2022-10-31T05:03:52.193Z,12.70
2022-10-31T05:06:37.372Z,12.70
2022-10-31T05:09:22.957Z,12.70
2022-10-31T05:12:10.331Z,12.70
2022-10-31T05:14:55.557Z,12.70
2022-10-31T05:17:41.429Z,12.60
2022-10-31T05:20:31.451Z,12.60
2022-10-31T05:23:19.122Z,12.60
2022-10-31T05:26:04.513Z,12.70
2022-10-31T05:28:52.429Z,12.70
2022-10-31T05:31:37.997Z,12.60
2022-10-31T05:34:23.553Z,12.60
2022-10-31T05:37:13.413Z,12.60
2022-10-31T05:40:00.291Z,12.60
2022-10-31T05:42:53.129Z,12.60
2022-10-31T05:45:38.469Z,12.60
2022-10-31T05:48:24.035Z,12.50
2022-10-31T05:51:09.542Z,12.50
2022-10-31T05:53:54.757Z,12.60
2022-10-31T05:56:40.546Z,12.50
2022-10-31T05:59:25.669Z,12.50
2022-10-31T06:02:13.385Z,12.60
2022-10-31T06:04:59.126Z,12.50
2022-10-31T06:07:45.310Z,12.50
2022-10-31T06:10:33.450Z,12.60
2022-10-31T06:13:19.123Z,12.60
2022-10-31T06:16:05.149Z,12.70
2022-10-31T06:18:50.480Z,12.70
2022-10-31T06:21:38.258Z,12.70
2022-10-31T06:24:23.535Z,12.70
2022-10-31T06:27:09.130Z,12.70
2022-10-31T06:29:54.693Z,12.70
2022-10-31T06:32:40.174Z,12.80
2022-10-31T06:35:25.844Z,12.80
2022-10-31T06:38:11.326Z,12.70
2022-10-31T06:40:58.842Z,12.70
2022-10-31T06:43:46.876Z,12.80
2022-10-31T06:46:34.806Z,12.70
2022-10-31T06:49:23.054Z,12.70
2022-10-31T06:52:10.880Z,12.80
2022-10-31T06:54:56.677Z,12.70
2022-10-31T06:57:42.125Z,12.80
2022-10-31T07:00:30.248Z,12.90
2022-10-31T07:03:16.585Z,13.00
2022-10-31T07:06:01.960Z,13.00
2022-10-31T07:08:50.277Z,13.10
2022-10-31T07:11:35.684Z,13.40
2022-10-31T07:14:21.042Z,13.50
2022-10-31T07:17:08.987Z,13.60
2022-10-31T07:19:57.488Z,13.70
2022-10-31T07:22:45.623Z,13.80
2022-10-31T07:25:34.257Z,14.00
2022-10-31T07:28:19.708Z,14.10
2022-10-31T07:31:08.697Z,14.30
2022-10-31T07:33:54.324Z,14.40
2022-10-31T07:36:39.945Z,14.50
2022-10-31T07:39:26.109Z,14.60
2022-10-31T07:42:13.750Z,14.60
2022-10-31T07:44:59.686Z,14.50
2022-10-31T07:47:50.419Z,14.60
2022-10-31T07:50:36.193Z,14.60
2022-10-31T07:53:21.449Z,14.60
2022-10-31T07:56:07.175Z,14.50
2022-10-31T07:58:52.450Z,14.50
2022-10-31T08:01:38.155Z,14.40
2022-10-31T08:04:23.365Z,14.30
2022-10-31T08:07:11.166Z,14.30
2022-10-31T08:09:57.022Z,14.40
2022-10-31T08:12:42.612Z,14.40
2022-10-31T08:15:29.000Z,14.40
2022-10-31T08:18:15.857Z,14.40
2022-10-31T08:21:03.460Z,14.50
2022-10-31T08:23:48.812Z,14.30
2022-10-31T08:26:34.491Z,14.30
2022-10-31T08:29:20.128Z,14.20
2022-10-31T08:32:05.734Z,14.20
2022-10-31T08:34:51.050Z,14.10
2022-10-31T08:37:39.055Z,14.10
2022-10-31T08:40:25.401Z,14.00
2022-10-31T08:43:15.881Z,14.00
2022-10-31T08:46:04.239Z,14.10
2022-10-31T08:48:50.264Z,14.00
2022-10-31T08:51:35.855Z,14.00
2022-10-31T08:54:21.928Z,14.10
2022-10-31T08:57:12.777Z,14.10
2022-10-31T08:59:58.196Z,14.10
2022-10-31T09:02:43.697Z,14.00
2022-10-31T09:05:30.174Z,14.00
2022-10-31T09:08:20.232Z,14.10
2022-10-31T09:11:08.944Z,14.00
2022-10-31T09:13:57.367Z,14.00
2022-10-31T09:16:42.721Z,14.10
2022-10-31T09:19:28.474Z,14.10
2022-10-31T09:22:13.626Z,14.20
2022-10-31T09:24:58.988Z,14.10
2022-10-31T09:27:44.298Z,14.20
2022-10-31T09:30:32.576Z,14.20
2022-10-31T09:33:19.090Z,14.40
2022-10-31T09:36:07.682Z,14.40
2022-10-31T09:38:53.313Z,14.40
2022-10-31T09:41:57.220Z,14.50
2022-10-31T09:44:58.158Z,14.50
2022-10-31T09:48:05.103Z,14.60
2022-10-31T09:50:58.186Z,14.60
2022-10-31T09:53:52.820Z,14.60
2022-10-31T09:56:38.940Z,14.60
2022-10-31T09:59:33.898Z,14.60
2022-10-31T10:02:26.788Z,14.60
2022-10-31T10:05:16.712Z,14.70
2022-10-31T10:08:11.433Z,14.80
2022-10-31T10:11:11.553Z,14.90
2022-10-31T10:14:34.749Z,15.00
2022-10-31T10:17:28.676Z,15.10
2022-10-31T10:20:26.455Z,15.20
2022-10-31T10:23:29.801Z,15.30
2022-10-31T10:26:50.456Z,15.40
2022-10-31T10:29:42.965Z,15.50
2022-10-31T10:32:31.124Z,15.50
2022-10-31T10:35:24.059Z,15.60
2022-10-31T10:38:12.465Z,15.70
2022-10-31T10:41:00.001Z,16.00
2022-10-31T10:47:11.261Z,16.10
2022-10-31T10:49:57.001Z,16.20
2022-10-31T10:52:50.961Z,16.30
2022-10-31T10:55:44.251Z,16.40
2022-10-31T10:58:32.314Z,16.50
2022-10-31T11:01:19.782Z,16.60
2022-10-31T11:04:32.972Z,16.70
2022-10-31T11:07:19.348Z,16.80
2022-10-31T11:10:14.802Z,16.90
2022-10-31T11:13:04.149Z,17.00
2022-10-31T11:16:07.200Z,17.00
2022-10-31T11:19:05.987Z,17.10
2022-10-31T11:21:54.487Z,17.10
2022-10-31T11:24:42.501Z,17.20
2022-10-31T11:27:28.277Z,17.30
2022-10-31T11:30:15.455Z,17.40
2022-10-31T11:33:01.285Z,17.50
2022-10-31T11:35:49.923Z,17.70
2022-10-31T11:38:42.684Z,17.70
2022-10-31T11:41:39.498Z,17.80
2022-10-31T11:44:31.016Z,17.90
2022-10-31T11:47:18.678Z,18.00
2022-10-31T11:50:16.382Z,18.10
2022-10-31T11:53:03.254Z,18.20
2022-10-31T11:56:01.659Z,18.30
2022-10-31T11:59:04.232Z,18.40
2022-10-31T12:01:52.541Z,18.50
2022-10-31T12:04:47.066Z,18.60
2022-10-31T12:07:34.902Z,18.70
2022-10-31T12:10:25.649Z,18.80
2022-10-31T12:13:41.374Z,18.90
2022-10-31T12:16:51.365Z,18.90
2022-10-31T12:20:25.074Z,18.80
2022-10-31T12:23:46.414Z,19.00
2022-10-31T12:26:47.568Z,19.00
2022-10-31T12:30:14.372Z,18.90
2022-10-31T12:33:27.421Z,19.00
2022-10-31T12:36:30.964Z,19.20
2022-10-31T12:39:31.761Z,19.30
2022-10-31T12:42:39.525Z,19.80
2022-10-31T12:45:34.710Z,20.20
2022-10-31T12:48:43.209Z,22.50
2022-10-31T12:51:37.447Z,24.40
2022-10-31T12:54:31.054Z,25.70
2022-10-31T12:57:25.383Z,26.90
2022-10-31T13:00:20.254Z,27.40
2022-10-31T13:03:34.613Z,25.80
2022-10-31T13:06:25.765Z,24.70
2022-10-31T13:09:18.065Z,26.00
2022-10-31T13:12:09.662Z,25.80
2022-10-31T13:15:05.163Z,26.90
2022-10-31T13:17:55.817Z,26.50
2022-10-31T13:20:44.495Z,26.20
2022-10-31T13:23:52.005Z,24.40
2022-10-31T13:26:54.513Z,23.70
2022-10-31T13:30:13.863Z,23.00
2022-10-31T13:33:16.447Z,22.50
2022-10-31T13:36:05.028Z,21.90
2022-10-31T13:39:16.726Z,21.60
2022-10-31T13:42:10.213Z,21.10
2022-10-31T13:45:07.688Z,20.90
2022-10-31T13:48:15.349Z,20.70
2022-10-31T13:51:07.247Z,20.60
2022-10-31T13:53:54.883Z,20.30
2022-10-31T13:56:41.267Z,20.10
2022-10-31T13:59:29.805Z,20.00
2022-10-31T14:02:19.833Z,19.80
2022-10-31T14:05:23.956Z,19.70
2022-10-31T14:08:24.365Z,19.60
2022-10-31T14:11:22.542Z,19.40
2022-10-31T14:14:13.317Z,19.30
2022-10-31T14:17:01.959Z,19.20
2022-10-31T14:20:12.273Z,19.10
2022-10-31T14:25:48.538Z,19.00
2022-10-31T14:28:37.905Z,18.80
2022-10-31T14:31:38.762Z,18.70
2022-10-31T14:34:59.179Z,18.60
2022-10-31T14:38:04.692Z,18.40
2022-10-31T14:41:08.579Z,18.20
2022-10-31T14:44:09.323Z,18.10
2022-10-31T14:47:27.564Z,17.70
2022-10-31T14:50:28.260Z,17.30
2022-10-31T14:53:27.530Z,17.10
2022-10-31T14:56:16.641Z,16.90
2022-10-31T14:59:09.157Z,16.70
2022-10-31T15:02:11.814Z,16.50
2022-10-31T15:05:17.483Z,16.40
2022-10-31T15:08:06.305Z,16.20
2022-10-31T15:10:51.999Z,16.00
2022-10-31T15:13:44.154Z,15.90
2022-10-31T15:16:35.833Z,15.80
2022-10-31T15:19:27.600Z,15.60
2022-10-31T15:22:19.671Z,15.60
2022-10-31T15:25:06.997Z,15.50
2022-10-31T15:27:54.063Z,15.30
2022-10-31T15:30:39.835Z,15.30
2022-10-31T15:33:43.828Z,15.10
2022-10-31T15:36:37.301Z,15.10
2022-10-31T15:39:24.887Z,15.00
2022-10-31T15:42:28.521Z,14.90
2022-10-31T15:45:14.123Z,14.80
2022-10-31T15:48:17.502Z,14.70
2022-10-31T15:51:03.544Z,14.70
2022-10-31T15:53:54.871Z,14.60
2022-10-31T15:56:44.940Z,14.50
2022-10-31T15:59:31.220Z,14.50
2022-10-31T16:02:22.352Z,14.50
2022-10-31T16:05:20.899Z,14.40
2022-10-31T16:08:25.467Z,14.40
2022-10-31T16:11:10.825Z,14.30
2022-10-31T16:14:01.907Z,14.20
2022-10-31T16:16:57.800Z,14.10
2022-10-31T16:19:53.392Z,14.10
2022-10-31T16:22:40.653Z,14.10
2022-10-31T16:25:38.585Z,14.10
2022-10-31T16:28:30.945Z,14.10
2022-10-31T16:31:29.988Z,14.00
2022-10-31T16:34:22.358Z,14.00
2022-10-31T16:37:12.645Z,14.00
2022-10-31T16:39:57.752Z,13.90
2022-10-31T16:42:45.105Z,13.80
2022-10-31T16:45:32.456Z,13.90
2022-10-31T16:48:23.565Z,13.80
2022-10-31T16:51:09.356Z,13.70
2022-10-31T16:53:57.446Z,13.70
2022-10-31T16:56:43.811Z,13.60
2022-10-31T16:59:30.491Z,13.60
2022-10-31T17:02:18.225Z,13.60
2022-10-31T17:05:04.351Z,13.60
2022-10-31T17:07:51.686Z,13.50
2022-10-31T17:10:38.680Z,13.50
2022-10-31T17:13:27.243Z,13.40
2022-10-31T17:16:15.217Z,13.50
2022-10-31T17:19:02.574Z,13.40
2022-10-31T17:21:48.052Z,13.40
2022-10-31T17:24:35.894Z,13.30
2022-10-31T17:27:21.635Z,13.20
2022-10-31T17:30:07.226Z,13.20
2022-10-31T17:32:55.342Z,13.30
2022-10-31T17:35:41.626Z,13.30
2022-10-31T17:38:27.080Z,13.40
2022-10-31T17:41:12.711Z,13.40
2022-10-31T17:43:59.479Z,13.40
2022-10-31T17:46:45.281Z,13.50
2022-10-31T17:49:30.891Z,13.40
2022-10-31T17:52:16.579Z,13.50
2022-10-31T17:55:02.871Z,13.50
2022-10-31T17:57:48.481Z,13.50
2022-10-31T18:00:34.630Z,13.50
2022-10-31T18:03:25.011Z,13.50
2022-10-31T18:09:26.880Z,13.40
2022-10-31T18:12:15.332Z,13.40
2022-10-31T18:15:00.624Z,13.30
2022-10-31T18:17:47.146Z,13.40
2022-10-31T18:20:35.465Z,13.30
2022-10-31T18:23:20.711Z,13.40
2022-10-31T18:26:08.665Z,13.30
2022-10-31T18:28:54.446Z,13.40
2022-10-31T18:31:40.248Z,13.40
2022-10-31T18:34:27.969Z,13.30
2022-10-31T18:37:13.383Z,13.50
2022-10-31T18:39:59.106Z,13.40
2022-10-31T18:42:44.874Z,13.40
2022-10-31T18:45:41.488Z,13.40
2022-10-31T18:48:32.035Z,13.50
2022-10-31T18:51:18.464Z,13.50
2022-10-31T18:57:21.042Z,13.30
2022-10-31T19:00:06.976Z,13.30
2022-10-31T19:02:57.464Z,13.40
2022-10-31T19:08:52.976Z,13.40
2022-10-31T19:11:39.571Z,13.40
2022-10-31T19:14:24.834Z,13.40
2022-10-31T19:17:11.047Z,13.40
2022-10-31T19:19:59.237Z,13.30
2022-10-31T19:22:47.174Z,13.30
2022-10-31T19:25:34.889Z,13.30
2022-10-31T19:28:21.255Z,13.20
2022-10-31T19:31:07.864Z,13.20
2022-10-31T19:33:53.210Z,13.20
2022-10-31T19:36:41.371Z,13.10
2022-10-31T19:39:29.837Z,13.10
2022-10-31T19:42:15.459Z,13.10
2022-10-31T19:45:02.200Z,13.10
2022-10-31T19:47:49.939Z,13.10
2022-10-31T19:50:35.253Z,13.00
2022-10-31T19:53:21.182Z,13.00
2022-10-31T19:56:27.077Z,13.00
2022-10-31T19:59:12.591Z,13.00
2022-10-31T20:01:58.091Z,13.00
2022-10-31T20:04:44.233Z,13.00
2022-10-31T20:07:30.111Z,13.00
2022-10-31T20:10:16.513Z,13.00
2022-10-31T20:13:02.144Z,12.90
2022-10-31T20:15:49.737Z,13.00
2022-10-31T20:18:35.935Z,12.90
2022-10-31T20:21:26.822Z,12.90
2022-10-31T20:24:14.166Z,12.80
2022-10-31T20:26:59.575Z,12.70
2022-10-31T20:29:44.957Z,12.70
2022-10-31T20:32:30.457Z,12.60
2022-10-31T20:35:16.244Z,12.50
2022-10-31T20:38:02.229Z,12.60
2022-10-31T20:40:50.480Z,12.50
2022-10-31T20:43:38.761Z,12.30
2022-10-31T20:46:27.680Z,12.40
2022-10-31T20:49:15.686Z,12.40
2022-10-31T20:52:01.480Z,12.40
2022-10-31T20:54:49.833Z,12.30
2022-10-31T20:57:35.476Z,12.20
2022-10-31T21:00:23.132Z,12.30
2022-10-31T21:03:13.532Z,12.30
2022-10-31T21:06:03.170Z,12.30
2022-10-31T21:08:49.129Z,12.20
2022-10-31T21:11:35.024Z,12.20
2022-10-31T21:14:20.596Z,12.20
2022-10-31T21:17:06.866Z,12.20
2022-10-31T21:19:55.020Z,12.20
2022-10-31T21:22:42.844Z,12.30
2022-10-31T21:25:28.594Z,12.30
2022-10-31T21:28:14.292Z,12.40
2022-10-31T21:31:02.054Z,12.30
2022-10-31T21:33:47.631Z,12.30
2022-10-31T21:36:34.586Z,12.30
2022-10-31T21:39:20.433Z,12.20
2022-10-31T21:42:05.830Z,12.20
2022-10-31T21:44:51.487Z,12.20
2022-10-31T21:47:36.754Z,12.20
2022-10-31T21:50:27.318Z,12.20
2022-10-31T21:53:31.592Z,12.30
2022-10-31T21:56:17.200Z,12.40
2022-10-31T21:59:04.867Z,12.30
2022-10-31T22:01:51.147Z,12.20
2022-10-31T22:04:36.739Z,12.20
2022-10-31T22:07:22.352Z,12.10
2022-10-31T22:10:08.450Z,12.30
2022-10-31T22:12:53.832Z,12.20
2022-10-31T22:15:44.511Z,12.20
2022-10-31T22:18:30.644Z,12.30
2022-10-31T22:21:19.009Z,12.40
2022-10-31T22:24:06.742Z,12.30
2022-10-31T22:26:53.578Z,12.40
2022-10-31T22:29:39.238Z,12.20
2022-10-31T22:32:27.228Z,12.30
2022-10-31T22:35:12.699Z,12.30
2022-10-31T22:37:58.206Z,12.30
2022-10-31T22:40:43.967Z,12.20
2022-10-31T22:43:31.527Z,12.30
2022-10-31T22:46:24.506Z,12.20
2022-10-31T22:49:15.051Z,12.30
2022-10-31T22:52:03.413Z,12.20
2022-10-31T22:54:49.795Z,12.30
2022-10-31T22:57:37.896Z,12.30
2022-10-31T23:00:25.365Z,12.40
2022-10-31T23:03:13.408Z,12.50
2022-10-31T23:06:02.167Z,12.50
2022-10-31T23:08:48.710Z,12.70
2022-10-31T23:11:39.762Z,12.70
2022-10-31T23:14:25.661Z,12.90
2022-10-31T23:17:17.684Z,13.00
2022-10-31T23:20:03.815Z,13.00
2022-10-31T23:22:49.214Z,12.90
2022-10-31T23:25:55.750Z,13.10
2022-10-31T23:28:43.736Z,13.10
2022-10-31T23:31:31.319Z,13.10
2022-10-31T23:34:19.157Z,13.00
2022-10-31T23:39:54.008Z,13.10
2022-10-31T23:42:39.960Z,13.00
2022-10-31T23:45:27.301Z,13.00
2022-10-31T23:48:12.771Z,13.00
2022-10-31T23:50:58.270Z,13.00
2022-10-31T23:53:46.628Z,13.20
2022-10-31T23:56:32.036Z,13.10
2022-10-31T23:59:20.258Z,13.20
